createdAt,value
2019-06-27T00:01:26.180Z,25.80
2019-06-27T00:03:57.419Z,25.70
2019-06-27T00:06:26.846Z,25.70
2019-06-27T00:09:02.401Z,25.60
2019-06-27T00:11:31.573Z,25.60
2019-06-27T00:14:13.575Z,25.60
2019-06-27T00:16:48.958Z,25.60
2019-06-27T00:19:25.154Z,25.60
2019-06-27T00:21:54.255Z,25.40
2019-06-27T00:24:30.015Z,25.40
2019-06-27T00:26:59.196Z,25.40
2019-06-27T00:29:34.512Z,25.30
2019-06-27T00:32:05.852Z,25.30
2019-06-27T00:34:41.333Z,25.20
2019-06-27T00:37:10.440Z,25.20
2019-06-27T00:39:50.564Z,25.10
2019-06-27T00:42:19.948Z,25.00
2019-06-27T00:44:55.255Z,25.10
2019-06-27T00:47:24.372Z,25.00
2019-06-27T00:50:00.084Z,24.90
2019-06-27T00:52:29.295Z,24.90
2019-06-27T00:54:58.303Z,24.90
2019-06-27T00:57:33.699Z,24.80
2019-06-27T01:00:02.855Z,24.70
2019-06-27T01:02:38.399Z,24.60
2019-06-27T01:05:08.119Z,24.60
2019-06-27T01:07:44.036Z,24.70
2019-06-27T01:10:13.586Z,24.60
2019-06-27T01:12:50.011Z,24.50
2019-06-27T01:15:32.540Z,24.60
2019-06-27T01:18:08.756Z,24.50
2019-06-27T01:20:37.913Z,24.50
2019-06-27T01:23:07.056Z,24.40
2019-06-27T01:25:42.295Z,24.30
2019-06-27T01:28:12.432Z,24.40
2019-06-27T01:30:47.940Z,24.30
2019-06-27T01:33:17.107Z,24.30
2019-06-27T01:35:53.155Z,24.30
2019-06-27T01:38:22.293Z,24.40
2019-06-27T01:40:57.839Z,24.50
2019-06-27T01:43:26.980Z,24.40
2019-06-27T01:46:03.791Z,24.60
2019-06-27T01:48:33.023Z,24.60
2019-06-27T01:51:09.307Z,24.60
2019-06-27T01:53:38.425Z,24.60
2019-06-27T01:56:07.547Z,24.40
2019-06-27T01:58:42.745Z,24.30
2019-06-27T02:01:11.889Z,24.10
2019-06-27T02:03:47.484Z,24.30
2019-06-27T02:06:16.703Z,24.30
2019-06-27T02:08:51.994Z,24.30
2019-06-27T02:11:21.184Z,24.30
2019-06-27T02:14:10.429Z,24.20
2019-06-27T02:16:45.882Z,24.20
2019-06-27T02:19:22.081Z,24.10
2019-06-27T02:21:51.231Z,23.90
2019-06-27T02:24:20.460Z,23.90
2019-06-27T02:26:55.850Z,23.80
2019-06-27T02:29:25.015Z,23.70
2019-06-27T02:32:01.182Z,23.80
2019-06-27T02:34:30.402Z,23.80
2019-06-27T02:37:06.435Z,23.80
2019-06-27T02:39:35.554Z,23.90
2019-06-27T02:42:14.015Z,23.80
2019-06-27T02:44:43.202Z,23.90
2019-06-27T02:47:18.690Z,23.80
2019-06-27T02:49:50.144Z,23.90
2019-06-27T02:52:25.430Z,23.90
2019-06-27T02:54:56.928Z,24.00
2019-06-27T02:57:36.493Z,23.90
2019-06-27T03:00:05.880Z,23.80
2019-06-27T03:02:35.016Z,23.90
2019-06-27T03:05:11.294Z,23.90
2019-06-27T03:07:40.421Z,24.00
2019-06-27T03:10:19.356Z,23.90
2019-06-27T03:12:48.718Z,23.80
2019-06-27T03:15:36.726Z,23.80
2019-06-27T03:18:05.888Z,23.80
2019-06-27T03:20:42.492Z,23.70
2019-06-27T03:23:11.666Z,23.60
2019-06-27T03:25:49.879Z,23.50
2019-06-27T03:28:19.267Z,23.60
2019-06-27T03:30:50.657Z,23.60
2019-06-27T03:33:29.916Z,23.60
2019-06-27T03:35:59.142Z,23.60
2019-06-27T03:38:34.518Z,23.50
2019-06-27T03:41:03.792Z,23.40
2019-06-27T03:43:40.656Z,23.50
2019-06-27T03:46:09.790Z,23.30
2019-06-27T03:48:47.089Z,23.30
2019-06-27T03:51:16.301Z,23.30
2019-06-27T03:53:52.243Z,23.30
2019-06-27T03:56:21.455Z,23.20
2019-06-27T03:59:06.355Z,22.90
2019-06-27T04:01:28.339Z,23.10
2019-06-27T04:03:58.342Z,23.20
2019-06-27T04:06:34.271Z,23.30
2019-06-27T04:09:03.501Z,23.40
2019-06-27T04:11:39.440Z,23.50
2019-06-27T04:14:28.223Z,23.40
2019-06-27T04:17:10.057Z,23.50
2019-06-27T04:19:40.531Z,23.70
2019-06-27T04:22:17.568Z,23.50
2019-06-27T04:24:46.607Z,23.50
2019-06-27T04:27:15.777Z,23.40
2019-06-27T04:29:51.610Z,23.30
2019-06-27T04:32:20.753Z,23.10
2019-06-27T04:34:56.683Z,23.10
2019-06-27T04:37:25.794Z,22.90
2019-06-27T04:40:01.114Z,22.90
2019-06-27T04:42:30.290Z,22.90
2019-06-27T04:45:06.204Z,22.60
2019-06-27T04:47:35.371Z,22.50
2019-06-27T04:50:04.709Z,22.20
2019-06-27T04:52:40.220Z,21.70
2019-06-27T04:55:09.409Z,21.50
2019-06-27T04:57:45.563Z,21.50
2019-06-27T05:00:21.948Z,21.80
2019-06-27T05:02:58.035Z,21.90
2019-06-27T05:05:27.195Z,22.00
2019-06-27T05:07:56.345Z,22.30
2019-06-27T05:10:32.037Z,22.60
2019-06-27T05:13:01.313Z,22.60
2019-06-27T05:15:43.320Z,22.40
2019-06-27T05:18:19.543Z,22.30
2019-06-27T05:20:55.227Z,22.30
2019-06-27T05:23:25.763Z,22.40
2019-06-27T05:26:01.246Z,22.30
2019-06-27T05:28:30.485Z,22.50
2019-06-27T05:30:59.735Z,22.70
2019-06-27T05:33:35.386Z,23.10
2019-06-27T05:36:04.606Z,23.30
2019-06-27T05:38:40.091Z,23.20
2019-06-27T05:41:09.203Z,22.90
2019-06-27T05:43:44.521Z,22.40
2019-06-27T05:46:13.897Z,22.20
2019-06-27T05:48:49.451Z,22.10
2019-06-27T05:51:18.745Z,22.20
2019-06-27T05:53:54.818Z,22.70
2019-06-27T05:56:23.947Z,22.90
2019-06-27T05:58:56.813Z,22.90
2019-06-27T06:01:33.170Z,23.10
2019-06-27T06:04:02.331Z,23.50
2019-06-27T06:06:39.548Z,24.00
2019-06-27T06:09:08.698Z,23.90
2019-06-27T06:11:44.533Z,24.70
2019-06-27T06:14:13.689Z,25.70
2019-06-27T06:17:02.656Z,26.30
2019-06-27T06:19:32.835Z,26.30
2019-06-27T06:22:02.010Z,26.40
2019-06-27T06:24:37.468Z,26.60
2019-06-27T06:27:06.602Z,26.20
2019-06-27T06:29:43.035Z,26.10
2019-06-27T06:32:13.559Z,25.60
2019-06-27T06:34:49.710Z,25.50
2019-06-27T06:37:19.008Z,25.40
2019-06-27T06:39:55.300Z,25.60
2019-06-27T06:42:24.566Z,26.10
2019-06-27T06:45:00.097Z,25.70
2019-06-27T06:47:30.390Z,25.80
2019-06-27T06:49:59.588Z,26.30
2019-06-27T06:52:35.705Z,26.70
2019-06-27T06:55:05.292Z,26.40
2019-06-27T06:57:40.656Z,25.90
2019-06-27T07:00:11.846Z,25.90
2019-06-27T07:02:48.128Z,25.90
2019-06-27T07:05:18.865Z,25.90
2019-06-27T07:07:54.434Z,25.90
2019-06-27T07:10:23.915Z,26.10
2019-06-27T07:12:53.048Z,26.30
2019-06-27T07:15:28.440Z,26.50
2019-06-27T07:18:04.602Z,26.80
2019-06-27T07:20:40.673Z,27.20
2019-06-27T07:23:12.658Z,27.00
2019-06-27T07:25:48.276Z,27.00
2019-06-27T07:28:17.379Z,26.70
2019-06-27T07:30:47.023Z,26.60
2019-06-27T07:33:22.470Z,26.30
2019-06-27T07:35:51.789Z,26.10
2019-06-27T07:38:27.890Z,25.60
2019-06-27T07:40:57.030Z,25.50
2019-06-27T07:46:25.674Z,25.70
2019-06-27T07:49:00.601Z,25.90
2019-06-27T07:51:31.183Z,26.10
2019-06-27T07:54:07.369Z,26.30
2019-06-27T07:56:36.575Z,26.60
2019-06-27T07:59:12.248Z,26.50
2019-06-27T08:01:41.342Z,26.40
2019-06-27T08:04:10.746Z,26.30
2019-06-27T08:06:46.923Z,26.10
2019-06-27T08:09:22.472Z,26.10
2019-06-27T08:11:51.742Z,26.00
2019-06-27T08:14:21.169Z,26.10
2019-06-27T08:17:04.087Z,26.10
2019-06-27T08:19:39.844Z,26.10
2019-06-27T08:22:15.499Z,26.10
2019-06-27T08:24:44.680Z,26.20
2019-06-27T08:27:20.626Z,26.10
2019-06-27T08:29:49.818Z,25.60
2019-06-27T08:32:27.135Z,25.80
2019-06-27T08:34:59.372Z,25.80
2019-06-27T08:37:37.154Z,26.30
2019-06-27T08:40:06.680Z,26.80
2019-06-27T08:42:35.887Z,27.40
2019-06-27T08:45:12.271Z,27.90
2019-06-27T08:47:43.775Z,28.30
2019-06-27T08:50:20.123Z,28.30
2019-06-27T08:52:50.409Z,28.40
2019-06-27T08:55:26.155Z,28.50
2019-06-27T08:57:55.361Z,28.50
2019-06-27T09:00:24.514Z,28.20
2019-06-27T09:03:03.479Z,27.90
2019-06-27T09:05:32.729Z,27.80
2019-06-27T09:08:08.955Z,27.30
2019-06-27T09:10:40.455Z,26.90
2019-06-27T09:13:18.189Z,26.90
2019-06-27T09:15:47.357Z,27.20
2019-06-27T09:18:29.847Z,27.70
2019-06-27T09:21:05.295Z,28.10
2019-06-27T09:23:41.555Z,28.60
2019-06-27T09:26:10.708Z,28.60
2019-06-27T09:31:34.253Z,27.80
2019-06-27T09:34:13.051Z,28.00
2019-06-27T09:36:42.198Z,28.00
2019-06-27T09:39:14.447Z,28.20
2019-06-27T09:41:49.950Z,28.30
2019-06-27T09:44:26.493Z,27.90
2019-06-27T09:46:55.579Z,27.80
2019-06-27T09:49:24.803Z,28.00
2019-06-27T09:52:00.643Z,28.30
2019-06-27T09:54:29.903Z,28.20
2019-06-27T09:57:25.786Z,28.30
2019-06-27T09:59:55.139Z,28.60
2019-06-27T10:02:40.923Z,28.80
2019-06-27T10:05:01.751Z,29.20
2019-06-27T10:07:31.048Z,29.30
2019-06-27T10:10:06.429Z,29.00
2019-06-27T10:12:42.490Z,28.80
2019-06-27T10:15:13.140Z,28.20
2019-06-27T10:17:49.234Z,28.10
2019-06-27T10:20:31.775Z,28.30
2019-06-27T10:23:28.537Z,28.20
2019-06-27T10:26:04.651Z,28.40
2019-06-27T10:28:35.304Z,28.60
2019-06-27T10:31:11.439Z,28.60
2019-06-27T10:33:40.639Z,28.80
2019-06-27T10:36:16.630Z,29.20
2019-06-27T10:38:45.853Z,29.00
2019-06-27T10:41:22.060Z,28.60
2019-06-27T10:43:51.482Z,28.30
2019-06-27T10:46:20.754Z,28.40
2019-06-27T10:48:55.970Z,28.70
2019-06-27T10:51:25.096Z,29.00
2019-06-27T10:54:01.068Z,29.10
2019-06-27T10:56:30.292Z,29.00
2019-06-27T10:59:08.278Z,29.00
2019-06-27T11:01:37.411Z,29.00
2019-06-27T11:04:15.162Z,29.20
2019-06-27T11:06:45.607Z,29.20
2019-06-27T11:09:14.902Z,29.40
2019-06-27T11:11:50.615Z,29.60
2019-06-27T11:14:19.972Z,29.30
2019-06-27T11:17:03.864Z,28.30
2019-06-27T11:19:51.867Z,27.90
2019-06-27T11:22:16.339Z,27.90
2019-06-27T11:24:45.438Z,28.20
2019-06-27T11:27:21.481Z,28.50
2019-06-27T11:29:50.690Z,28.80
2019-06-27T11:32:26.342Z,29.10
2019-06-27T11:34:55.579Z,28.90
2019-06-27T11:37:31.470Z,28.80
2019-06-27T11:40:00.679Z,28.80
2019-06-27T11:42:35.890Z,29.10
2019-06-27T11:45:05.651Z,29.40
2019-06-27T11:47:34.870Z,29.60
2019-06-27T11:50:10.408Z,29.90
2019-06-27T11:52:39.485Z,29.80
2019-06-27T11:55:15.273Z,29.80
2019-06-27T11:57:45.617Z,29.50
2019-06-27T12:00:21.456Z,29.50
2019-06-27T12:02:50.694Z,29.60
2019-06-27T12:05:19.887Z,29.80
2019-06-27T12:07:55.755Z,30.00
2019-06-27T12:10:25.688Z,30.10
2019-06-27T12:13:01.206Z,29.90
2019-06-27T12:15:32.452Z,29.90
2019-06-27T12:18:14.873Z,29.90
2019-06-27T12:20:50.509Z,29.80
2019-06-27T12:23:26.549Z,29.70
2019-06-27T12:25:55.786Z,29.60
2019-06-27T12:28:31.102Z,29.30
2019-06-27T12:31:00.277Z,29.10
2019-06-27T12:33:35.598Z,28.80
2019-06-27T12:36:04.718Z,28.80
2019-06-27T12:38:40.384Z,29.00
2019-06-27T12:41:09.562Z,29.00
2019-06-27T12:43:45.218Z,29.00
2019-06-27T12:46:14.339Z,28.80
2019-06-27T12:48:43.628Z,28.70
2019-06-27T12:51:19.263Z,28.60
2019-06-27T12:53:48.567Z,28.40
2019-06-27T12:56:24.206Z,28.40
2019-06-27T12:58:53.449Z,28.40
2019-06-27T13:01:29.853Z,28.30
2019-06-27T13:03:59.097Z,28.40
2019-06-27T13:06:35.006Z,28.50
2019-06-27T13:09:05.360Z,28.60
2019-06-27T13:11:42.048Z,28.60
2019-06-27T13:14:15.478Z,28.30
2019-06-27T13:16:58.655Z,28.10
2019-06-27T13:19:30.947Z,28.00
2019-06-27T13:22:12.547Z,28.10
2019-06-27T13:24:41.754Z,28.40
2019-06-27T13:27:11.091Z,28.40
2019-06-27T13:29:47.390Z,28.20
2019-06-27T13:32:16.622Z,27.70
2019-06-27T13:34:52.984Z,27.80
2019-06-27T13:37:22.201Z,28.00
2019-06-27T13:39:58.405Z,28.10
2019-06-27T13:42:29.246Z,28.30
2019-06-27T13:45:05.160Z,28.50
2019-06-27T13:47:40.679Z,28.60
2019-06-27T13:50:16.590Z,28.40
2019-06-27T13:52:47.809Z,28.40
2019-06-27T13:55:26.203Z,28.50
2019-06-27T13:57:57.613Z,28.40
2019-06-27T14:00:52.170Z,28.20
2019-06-27T14:03:21.450Z,28.00
2019-06-27T14:05:59.699Z,28.00
2019-06-27T14:08:29.097Z,28.20
2019-06-27T14:11:11.933Z,28.30
2019-06-27T14:13:42.460Z,28.30
2019-06-27T14:16:11.696Z,28.20
2019-06-27T14:18:47.677Z,28.20
2019-06-27T14:21:26.617Z,28.20
2019-06-27T14:24:08.283Z,28.30
2019-06-27T14:26:37.793Z,28.40
2019-06-27T14:29:13.581Z,28.40
2019-06-27T14:31:42.978Z,28.30
2019-06-27T14:34:38.096Z,28.40
2019-06-27T14:37:08.765Z,28.50
2019-06-27T14:39:44.595Z,28.50
2019-06-27T14:42:15.808Z,28.30
2019-06-27T14:44:51.039Z,28.10
2019-06-27T14:50:16.849Z,28.20
2019-06-27T14:52:46.085Z,28.20
2019-06-27T14:55:22.357Z,28.20
2019-06-27T14:57:53.516Z,28.00
2019-06-27T15:00:32.488Z,28.00
2019-06-27T15:03:02.765Z,28.10
2019-06-27T15:05:33.608Z,28.00
2019-06-27T15:08:10.029Z,28.00
2019-06-27T15:10:46.065Z,27.80
2019-06-27T15:13:21.422Z,27.90
2019-06-27T15:15:50.759Z,27.90
2019-06-27T15:18:28.229Z,27.90
2019-06-27T15:20:57.376Z,27.80
2019-06-27T15:23:43.039Z,27.80
2019-06-27T15:26:12.629Z,27.80
2019-06-27T15:28:48.584Z,27.80
2019-06-27T15:31:17.774Z,27.70
2019-06-27T15:33:53.997Z,27.70
2019-06-27T15:36:23.153Z,27.80
2019-06-27T15:38:59.496Z,27.80
2019-06-27T15:41:29.820Z,27.80
2019-06-27T15:43:58.971Z,27.90
2019-06-27T15:46:34.270Z,27.90
2019-06-27T15:49:03.355Z,28.00
2019-06-27T15:51:38.866Z,28.00
2019-06-27T15:54:07.987Z,28.10
2019-06-27T15:56:43.940Z,28.20
2019-06-27T15:59:13.331Z,28.30
2019-06-27T16:01:49.589Z,28.20
2019-06-27T16:04:30.748Z,28.30
2019-06-27T16:06:50.889Z,28.20
2019-06-27T16:09:27.120Z,28.10
2019-06-27T16:12:02.427Z,28.00
2019-06-27T16:14:38.558Z,28.00
2019-06-27T16:17:07.749Z,28.00
2019-06-27T16:19:43.914Z,28.10
2019-06-27T16:22:19.225Z,28.00
2019-06-27T16:25:02.092Z,27.90
2019-06-27T16:27:33.463Z,27.80
2019-06-27T16:30:09.270Z,27.70
2019-06-27T16:32:38.379Z,27.80
2019-06-27T16:35:14.817Z,27.70
2019-06-27T16:37:44.115Z,27.60
2019-06-27T16:40:20.492Z,27.60
2019-06-27T16:42:49.908Z,27.70
2019-06-27T16:45:19.223Z,27.70
2019-06-27T16:47:55.198Z,27.80
2019-06-27T16:50:24.250Z,27.80
2019-06-27T16:53:00.428Z,27.60
2019-06-27T16:55:30.164Z,27.40
2019-06-27T16:58:05.460Z,27.40
2019-06-27T17:00:35.582Z,27.40
2019-06-27T17:03:11.733Z,27.50
2019-06-27T17:05:41.513Z,27.50
2019-06-27T17:08:17.075Z,27.70
2019-06-27T17:10:53.005Z,27.90
2019-06-27T17:13:28.708Z,28.00
2019-06-27T17:15:57.871Z,28.00
2019-06-27T17:18:27.020Z,27.90
2019-06-27T17:21:02.776Z,27.70
2019-06-27T17:23:38.368Z,27.50
2019-06-27T17:26:13.825Z,27.50
2019-06-27T17:28:42.937Z,27.30
2019-06-27T17:31:18.931Z,27.30
2019-06-27T17:33:48.193Z,27.30
2019-06-27T17:36:24.379Z,27.30
2019-06-27T17:38:53.495Z,27.40
2019-06-27T17:41:31.870Z,27.20
2019-06-27T17:44:04.265Z,27.30
2019-06-27T17:46:40.543Z,27.20
2019-06-27T17:49:09.797Z,27.20
2019-06-27T17:51:45.870Z,27.20
2019-06-27T17:54:15.175Z,27.20
2019-06-27T17:56:51.541Z,27.20
2019-06-27T17:59:22.143Z,27.10
2019-06-27T18:02:00.768Z,27.20
2019-06-27T18:04:30.049Z,27.20
2019-06-27T18:07:14.348Z,27.10
2019-06-27T18:09:36.309Z,27.00
2019-06-27T18:12:18.819Z,26.90
2019-06-27T18:14:47.902Z,26.90
2019-06-27T18:17:32.913Z,26.80
2019-06-27T18:19:54.795Z,26.80
2019-06-27T18:22:30.255Z,26.90
2019-06-27T18:25:05.916Z,26.80
2019-06-27T18:27:42.143Z,26.80
2019-06-27T18:30:12.680Z,26.70
2019-06-27T18:32:41.919Z,26.70
2019-06-27T18:35:18.212Z,26.70
2019-06-27T18:37:48.572Z,26.60
2019-06-27T18:40:28.886Z,26.60
2019-06-27T18:42:58.156Z,26.50
2019-06-27T18:45:34.685Z,26.50
2019-06-27T18:48:03.858Z,26.40
2019-06-27T18:50:39.022Z,26.40
2019-06-27T18:53:08.161Z,26.40
2019-06-27T18:55:44.237Z,26.30
2019-06-27T18:58:13.343Z,26.30
2019-06-27T19:00:49.026Z,26.30
2019-06-27T19:03:18.239Z,26.30
2019-06-27T19:05:55.922Z,26.30
2019-06-27T19:08:25.289Z,26.20
2019-06-27T19:11:08.254Z,26.30
2019-06-27T19:13:37.895Z,26.20
2019-06-27T19:16:09.710Z,26.10
2019-06-27T19:18:53.183Z,26.00
2019-06-27T19:21:27.536Z,26.00
2019-06-27T19:24:31.395Z,26.00
2019-06-27T19:27:06.895Z,26.00
2019-06-27T19:29:42.911Z,25.90
2019-06-27T19:32:18.649Z,25.90
2019-06-27T19:34:47.798Z,25.80
2019-06-27T19:37:26.699Z,25.60
2019-06-27T19:39:55.900Z,25.60
2019-06-27T19:42:31.882Z,25.60
2019-06-27T19:45:03.867Z,25.50
2019-06-27T19:47:33.146Z,25.50
2019-06-27T19:50:09.416Z,25.50
2019-06-27T19:52:39.988Z,25.50
2019-06-27T19:55:16.751Z,25.50
2019-06-27T19:57:45.942Z,25.40
2019-06-27T20:00:22.332Z,25.40
2019-06-27T20:02:51.661Z,25.40
2019-06-27T20:05:33.732Z,25.40
2019-06-27T20:08:17.926Z,25.30
2019-06-27T20:10:46.418Z,25.30
2019-06-27T20:13:15.553Z,25.30
2019-06-27T20:15:51.612Z,25.30
2019-06-27T20:18:20.942Z,25.30
2019-06-27T20:20:59.856Z,25.30
2019-06-27T20:23:29.438Z,25.30
2019-06-27T20:26:11.858Z,25.20
2019-06-27T20:28:41.076Z,25.10
2019-06-27T20:31:20.770Z,25.00
2019-06-27T20:33:52.255Z,24.90
2019-06-27T20:36:27.918Z,24.70
2019-06-27T20:39:03.095Z,24.40
2019-06-27T20:41:35.279Z,24.20
2019-06-27T20:44:04.555Z,24.00
2019-06-27T20:46:42.107Z,24.10
2019-06-27T20:49:11.580Z,24.10
2019-06-27T20:51:43.900Z,24.10
2019-06-27T20:54:19.839Z,24.10
2019-06-27T20:56:50.727Z,23.90
2019-06-27T20:59:34.346Z,23.90
2019-06-27T21:02:05.928Z,23.90
2019-06-27T21:04:51.410Z,23.90
2019-06-27T21:07:29.392Z,23.80
2019-06-27T21:09:58.112Z,23.60
2019-06-27T21:12:27.399Z,23.40
2019-06-27T21:15:04.923Z,23.30
2019-06-27T21:17:36.285Z,23.20
2019-06-27T21:20:12.018Z,23.00
2019-06-27T21:22:41.287Z,23.00
2019-06-27T21:25:16.845Z,23.00
2019-06-27T21:27:52.300Z,23.10
2019-06-27T21:30:28.483Z,23.00
2019-06-27T21:32:57.637Z,23.10
2019-06-27T21:35:32.807Z,23.00
2019-06-27T21:38:02.011Z,22.90
2019-06-27T21:40:38.169Z,22.90
2019-06-27T21:43:07.519Z,22.80
2019-06-27T21:45:43.592Z,22.70
2019-06-27T21:48:15.170Z,22.50
2019-06-27T21:50:51.095Z,22.40
2019-06-27T21:53:20.251Z,22.30
2019-06-27T21:55:49.429Z,22.30
2019-06-27T21:58:24.684Z,22.30
2019-06-27T22:00:55.836Z,22.30
2019-06-27T22:09:40.450Z,22.20
2019-06-27T22:12:19.112Z,22.30
2019-06-27T22:14:48.256Z,22.10
2019-06-27T22:17:23.843Z,22.10
2019-06-27T22:20:16.269Z,22.10
2019-06-27T22:22:51.843Z,22.10
2019-06-27T22:25:21.354Z,21.90
2019-06-27T22:28:04.014Z,21.90
2019-06-27T22:30:38.786Z,21.80
2019-06-27T22:33:14.510Z,21.60
2019-06-27T22:35:43.788Z,21.40
2019-06-27T22:38:36.676Z,21.00
2019-06-27T22:41:23.857Z,20.90
2019-06-27T22:44:16.909Z,20.80
2019-06-27T22:47:23.596Z,20.80
2019-06-27T22:49:59.818Z,20.80
2019-06-27T22:52:46.676Z,20.60
2019-06-27T22:55:27.349Z,20.60
2019-06-27T22:57:56.561Z,20.50
2019-06-27T23:00:25.713Z,20.50
2019-06-27T23:03:01.472Z,20.70
2019-06-27T23:05:43.465Z,20.60
2019-06-27T23:08:12.708Z,20.70
2019-06-27T23:10:41.972Z,20.70
2019-06-27T23:13:17.870Z,20.60
2019-06-27T23:15:54.050Z,20.90
2019-06-27T23:18:23.120Z,20.90
2019-06-27T23:20:52.299Z,21.10
2019-06-27T23:23:28.314Z,21.20
2019-06-27T23:25:57.514Z,21.30
2019-06-27T23:28:32.899Z,21.30
2019-06-27T23:31:08.708Z,21.40
2019-06-27T23:33:37.811Z,21.30
2019-06-27T23:36:13.506Z,21.50
2019-06-27T23:38:42.714Z,21.60
2019-06-27T23:41:11.846Z,21.60
2019-06-27T23:43:47.605Z,21.50
2019-06-27T23:46:34.594Z,21.60
2019-06-27T23:49:10.911Z,21.70
2019-06-27T23:51:40.209Z,21.70
2019-06-27T23:54:17.850Z,21.70
2019-06-27T23:56:47.015Z,21.80
2019-06-27T23:59:22.680Z,21.90
